Tiempo atmosférico en la estación meteorológica de Xàtiva, València/Valencia (88 m.)



Fecha
DESCASC
Temp. máxima en grados centígrados (hora)
DESCASC
Temp. mínima en grados centígrados (hora)
DESCASC
Temp. media en grados centígrados
DESCASC
Racha de viento máxima en m/sg (hora)
DESCASC
Velocidad máxima media en intervalos de 10 minutos(hora)
DESCASC
Precipitaciones diarias en mm
DESCASC
Precipitaciones de 00:00 a 06:00 en mm
DESCASC
Precipitaciones de 06:00 a 12:00 en mm
DESCASC
Precipitaciones de 12:00 a 18:00 en mm
DESCASC
Precipitaciones de 18:00 a 24:00 en mm
DESCASC
19-09-2019 29.5 (16:30) 17.6 (08:00) 23.6 7.5 (16:20) 5 (15:50) 0 0 0 0 0
18-09-2019 32.2 (15:50) 18.4 (08:00) 25.3 7.5 (16:10) 3.61 (19:00) 0 0 0 0 0
17-09-2019 29.4 (16:40) 18.7 (00:00) 24.1 5 (16:30) 3.33 (17:00) 0 0 0 0 0
16-09-2019 29.4 (16:20) 21.4 (00:00) 25.4 7.22 (19:20) 4.44 (19:00) 0 0 0 0 0
15-09-2019 25.2 (15:30) 20.7 (00:00) 23 11.94 (11:40) 6.11 (11:40) 0.8 0.2 0.6 0 0
14-09-2019 23.7 (15:50) 17 (00:00) 20.4 13.33 (06:40) 7.5 (06:40) 10.6 0 10 0 0.6
13-09-2019 24.5 (13:10) 18.8 (00:00) 21.6 11.94 (18:30) 6.67 (18:30) 24 0.4 16.8 4.8 2
12-09-2019 24 (18:40) 16.9 (00:00) 20.4 19.17 (04:40) 10.28 (04:40) 41.4 22 18.8 0.6 0
11-09-2019 21.2 (17:40) 14.4 (00:00) 17.8 14.72 (21:00) 6.67 (15:40) 17.6 0 8.4 4.6 4.6
10-09-2019 27.9 (16:10) 19.2 (23:30) 23.6 13.89 (14:40) 8.33 (14:40) 0.4 0 0 0.4 0
09-09-2019 34.5 (15:40) 18.4 (07:10) 26.4 12.78 (18:40) 7.5 (18:50) 0 0 0 0 0
08-09-2019 30.7 (15:30) 17.5 (00:00) 24.1 14.17 (20:50) 3.61 (15:00) 0 0 0 0 0
07-09-2019 27.5 (18:30) 18.1 (00:00) 22.8 8.61 (13:20) 5 (13:20) 0 0 0 0 0
06-09-2019 27.7 (15:40) 20.4 (00:00) 24.1 8.61 (15:10) 5 (16:10) 0.2 0 0.2 0 0
05-09-2019 30.2 (16:10) 22.9 (00:00) 26.6 7.78 (17:50) 4.72 (17:50) 0 0 0 0 0
04-09-2019 33.2 (16:20) 22.9 (00:00) 28.1 13.61 (21:10) 5.28 (16:50) 0 0 0 0 0
03-09-2019 33 (16:10) 20.2 (00:00) 26.6 14.72 (21:30) 4.72 (17:20) 0 0 0 0 0
02-09-2019 29.6 (18:00) 20.2 (00:00) 24.9 9.17 (04:10) 5.28 (04:10) 0.2 0 0 0.2 0
01-09-2019 37.7 (15:40) 19.6 (00:00) 28.7 11.67 (21:10) 6.67 (19:50) 0 0 0 0 0
31-08-2019 36.8 (17:40) 19.3 (00:00) 28 6.67 (16:30) 3.89 (17:50) 0 0 0 0 0
30-08-2019 35.6 (16:40) 20.5 (00:00) 28 13.89 (23:20) 5 (15:40) 0 0 0 0 0
29-08-2019 35.3 (17:00) 18.4 (00:00) 26.8 7.78 (18:30) 4.72 (18:30) 0.2 0.2 0 0 0
28-08-2019 32.9 (17:10) 16.9 (00:00) 24.9 7.78 (16:30) 4.72 (16:30) 0 0 0 0 0
27-08-2019 31.1 (17:20) 18.3 (00:00) 24.7 12.5 (03:30) 6.67 (19:10) 2.2 1.4 0.6 0.2 0
26-08-2019 29.3 (15:30) 19.6 (00:00) 24.4 11.67 (13:30) 7.5 (13:30) 0 0 0 0 0
25-08-2019 33 (14:50) 19.6 (00:00) 26.3 13.89 (03:00) 6.67 (16:00) 0 0 0 0 0
24-08-2019 33.7 (16:20) 18.1 (00:00) 25.9 16.11 (01:40) 4.72 (18:10) 0 0 0 0 0
23-08-2019 33.7 (15:50) 19 (00:00) 26.4 15.28 (21:20) 5.83 (16:50) 0 0 0 0 0
22-08-2019 33.2 (16:40) 17.7 (00:00) 25.5 -- (--) 5.56 (17:40) 0 0 0 0 0
21-08-2019 30.1 (17:00) 21.7 (00:00) 25.9 -- (--) 5.83 (19:00) 0.4 0.2 0.2 0 0

Gráficas

Temp. máximas Temp. mínimas Temp. medias Precipitaciones Rachas de viento máximas Velocidades máximas media en intervalos de 10 minutos

Datos horarios

Fecha y hora oficial Temperatura (ºC) Velocidad del viento (km/h) Dirección del viento Racha (km/h) Dirección de racha Precipitación (mm) Presión (hPa) Tendencia (hPa) Humedad (%)
2019-09-19 23:00:00 21.8 2 Nordeste 7 Noroeste 0 1007.7 1.8 90
2019-09-19 22:00:00 22 3 Norte 14 Norte 0 1007.3 2.1 87
2019-09-19 21:00:00 22.8 11 Norte 20 Norte 0 1006.5 1.6 80
2019-09-19 20:00:00 24 9 Norte 19 Norte 0 1005.9 0.9 74
2019-09-19 19:00:00 25.9 13 Norte 24 Norte 0 1005.2 0 63
2019-09-19 18:00:00 28.2 10 Nordeste 18 Nordeste 0 1004.9 -0.9 46
2019-09-19 17:00:00 29.3 12 Nordeste 27 Norte 0 1005 -1.4 46
2019-09-19 16:00:00 29.3 16 Norte 26 Norte 0 1005.2 -1.7 52
2019-09-19 15:00:00 28.8 11 Norte 24 Nordeste 0 1005.8 -1.5 51
2019-09-19 14:00:00 28.1 7 Norte 17 Nordeste 0 1006.4 -0.8 51
2019-09-19 13:00:00 27.2 4 Nordeste 13 Nordeste 0 1006.9 -0.1 47
2019-09-19 12:00:00 26.4 4 Sudeste 10 Este 0 1007.3 0.6 48
2019-09-19 11:00:00 24.1 5 Sudoeste 14 Oeste 0 1007.2 1.1 51
2019-09-19 10:00:00 21.4 5 Oeste 13 Sudoeste 0 1007 1.1 73
2019-09-19 09:00:00 19 5 Sudoeste 12 Sudoeste 0 1006.7 1 82
2019-09-19 08:00:00 17.6 6 Oeste 10 Sudoeste 0 1006.1 0.2 89
2019-09-19 07:00:00 18 4 Sur 12 Oeste 0 1005.9 0.2 88
2019-09-19 06:00:00 18.6 7 Sudoeste 14 Sudoeste 0 1005.7 -0.2 86
2019-09-19 05:00:00 18.7 4 Sudoeste 12 Oeste 0 1005.9 -0.2 87
2019-09-19 04:00:00 19.1 8 Oeste 12 Oeste 0 1005.7 -0.3 89
2019-09-19 03:00:00 19.7 7 Oeste 11 Oeste 0 1005.9 -0.2 89
2019-09-19 02:00:00 20.4 5 Oeste 9 Oeste 0 1006.1 0.1 86
2019-09-19 01:00:00 21.5 6 Oeste 9 Oeste 0 1006 0.4 85
2019-09-19 00:00:00 22.4 5 Oeste 8 Oeste 0 1006.1 1.4 83
2019-09-18 23:00:00 22.9 3 Oeste 8 Oeste 0 1006 2.4 83
2019-09-18 22:00:00 23.9 3 Sudeste 12 Sudeste 0 1005.6 2.7 71
2019-09-18 21:00:00 25 5 Sudoeste 12 Oeste 0 1004.7 2 56
2019-09-18 20:00:00 27.7 3 Noroeste 15 Sudeste 0 1003.6 0.7 48
2019-09-18 19:00:00 29.9 13 Este 19 Sudeste 0 1002.9 -0.4 39
2019-09-18 18:00:00 31.3 10 Nordeste 17 Este 0 1002.7 -1.2 40
2019-09-18 17:00:00 31.6 10 Este 27 Nordeste 0 1002.9 -1.5 39
2019-09-18 16:00:00 31.8 9 Nordeste 19 Nordeste 0 1003.3 -1.4 42
2019-09-18 15:00:00 31.4 10 Nordeste 20 Nordeste 0 1003.9 -1.2 41
2019-09-18 14:00:00 30.9 6 Nordeste 14 Este 0 1004.4 -0.7 41
2019-09-18 13:00:00 29.8 5 Nordeste 10 Este 0 1004.7 -0.3 43
2019-09-18 12:00:00 28 4 Nordeste 9 Nordeste 0 1005.1 0.5 51
2019-09-18 11:00:00 25.8 3 Noroeste 13 Oeste 0 1005.1 1.1 60
2019-09-18 10:00:00 23 6 Oeste 15 Sudoeste 0 1005 1.1 70
2019-09-18 09:00:00 20.2 7 Sudoeste 14 Sudoeste 0 1004.6 0.8 85
2019-09-18 08:00:00 18.4 5 Oeste 9 Oeste 0 1004 0 91
2019-09-18 07:00:00 18.8 4 Sur 10 Oeste 0 1003.9 -0.1 90
2019-09-18 06:00:00 19.5 6 Sudoeste 12 Oeste 0 1003.8 -0.8 88
2019-09-18 05:00:00 19.3 4 Oeste 10 Oeste 0 1004 -0.6 89
2019-09-18 04:00:00 20 4 Oeste 10 Sudoeste 0 1004 -0.7 86
2019-09-18 03:00:00 20.6 6 Oeste 10 Oeste 0 1004.6 -0.5 86
2019-09-18 02:00:00 21 2 Sudoeste 15 Oeste 0 1004.6 -1.2 85
2019-09-18 01:00:00 21.1 8 Oeste 13 Oeste 0 1004.7 -0.9 85
2019-09-18 00:00:00 22 5 Sudoeste 15 Oeste 0 1005.1 0.8 82
2019-09-17 23:00:00 23.1 4 Sur 12 Nordeste 0 1005.8 1.5 81
2019-09-17 22:00:00 23.1 6 Oeste 10 Oeste 0 1005.6 2 77
2019-09-17 21:00:00 24.1 2 Noroeste 11 Oeste 0 1004.3 0.4 70
2019-09-15 18:00:00 24.5 19 Nordeste 31 Nordeste 0 1008.2 -1.1 82
2019-09-15 17:00:00 24.8 19 Nordeste 31 Nordeste 0 1008.3 -1.6 80
2019-09-15 16:00:00 24.9 18 Nordeste 30 Nordeste 0 1008.7 -1.3 79
2019-09-15 15:00:00 24.5 15 Nordeste 35 Nordeste 0 1009.3 -0.5 78
2019-09-15 14:00:00 23.6 16 Nordeste 33 Norte 0 1009.9 0.2 80
2019-09-15 13:00:00 22.5 19 Nordeste 33 Norte 0 1010 0.3 84
2019-09-15 12:00:00 21.8 18 Norte 43 Norte 0 1009.8 0.3 88
2019-09-15 11:00:00 22 7 Norte 19 Norte 0.2 1009.7 0.2 93
2019-09-15 10:00:00 21.2 9 Norte 21 Norte 0 1009.7 0.4 93
2019-09-15 09:00:00 21 10 Nordeste 20 Nordeste 0.2 1009.5 0.4 93
2019-09-15 08:00:00 20.8 7 Nordeste 25 Nordeste 0.2 1009.5 0.3 92
2019-09-15 07:00:00 21.1 11 Nordeste 27 Nordeste 0 1009.3 -0.6 90
2019-09-15 06:00:00 21.1 10 Nordeste 24 Nordeste 0.2 1009.1 -1.8 91
2019-09-15 05:00:00 21.2 10 Norte 21 Norte 0 1009.2 -2.4 90
2019-09-15 04:00:00 21.2 10 Nordeste 25 Norte 0 1009.9 -1.7 91
2019-09-15 03:00:00 21.4 9 Norte 18 Nordeste 0 1010.9 -0.5 92
2019-09-15 02:00:00 21.6 3 Norte 12 Norte 0 1011.6 0.2 93
2019-09-15 01:00:00 21.6 6 Nordeste 18 Norte 0 1011.6 -0.3 94
2019-09-15 00:00:00 21.6 10 Norte 22 Norte 0 1011.4 0.6 94
2019-09-14 23:00:00 21.5 2 Noroeste 8 Nordeste 0 1011.4 1.3 94
2019-09-14 22:00:00 21.5 3 Sudeste 18 Este 0.2 1011.9 1.4 94
2019-09-14 21:00:00 21.9 12 Nordeste 24 Norte 0.2 1010.8 -0.2 94
2019-09-14 20:00:00 22 8 Norte 15 Norte 0 1010.1 -0.9 93
2019-09-14 19:00:00 21.5 2 Sudeste 12 Nordeste 0.2 1010.5 -0.8 92
2019-09-14 18:00:00 22 9 Nordeste 20 Nordeste 0 1011 -1.3 87
2019-09-14 17:00:00 22.9 11 Nordeste 26 Norte 0 1011 -1.9 78
2019-09-14 16:00:00 23.4 13 Norte 27 Nordeste 0 1011.3 -1.9 75
2019-09-14 15:00:00 23.1 14 Norte 23 Nordeste 0 1012.3 -1 71
2019-09-14 14:00:00 23.1 13 Nordeste 23 Nordeste 0 1012.9 -0.5 68
2019-09-14 13:00:00 23.4 3 Nordeste 12 Este 0 1013.2 -0.3 67
2019-09-14 12:00:00 22.5 3 Este 12 Oeste 0 1013.3 0.5 70
2019-09-14 11:00:00 20.3 4 Oeste 9 Oeste 0 1013.4 0 80
2019-09-14 10:00:00 18.4 3 Sur 13 Norte 0 1013.5 -0.8 90
2019-09-14 09:00:00 17.6 5 Norte 13 Norte 0 1012.8 -0.9 93
2019-09-14 08:00:00 17.1 3 Sudoeste 47 Nordeste 2 1013.4 -0.4 93
2019-09-14 07:00:00 17.4 12 Noroeste 48 Sudoeste 8 1014.3 0.2 92
2019-09-14 06:00:00 19.4 5 Oeste 10 Oeste 0 1013.7 -0.6 87
2019-09-14 05:00:00 19.6 4 Oeste 12 Sudoeste 0 1013.8 0 81
2019-09-14 04:00:00 19.2 7 Oeste 18 Oeste 0 1014.1 -0.4 91
2019-09-14 03:00:00 19.3 8 Oeste 15 Oeste 0 1014.3 -0.7 91
2019-09-14 02:00:00 19.3 4 Nordeste 8 Nordeste 0 1013.8 -1.3 93
2019-09-14 01:00:00 19.4 5 Norte 13 Norte 0 1014.5 -0.6 94
2019-09-14 00:00:00 19.5 8 Norte 14 Norte 0 1015 0.8 94
2019-09-13 23:00:00 18.8 5 Oeste 11 Sudoeste 0 1015.1 2.1 92
2019-09-13 22:00:00 19.2 7 Sudoeste 10 Oeste 0 1015.1 2.2 91
2019-09-13 21:00:00 19.8 4 Oeste 14 Nordeste 0 1014.2 1.5 88
2019-09-13 20:00:00 20.5 7 Sudeste 26 Este 0 1013 0.6 85
2019-09-13 19:00:00 21.1 14 Nordeste 43 Este 2 1012.9 0.4 85
2019-09-13 18:00:00 20.8 12 Nordeste 27 Norte 4.6 1012.7 -0.3 95
2019-09-13 17:00:00 20.9 18 Norte 29 Norte 0.2 1012.4 -0.5 93
2019-09-13 16:00:00 22.1 9 Norte 36 Este 0 1012.5 -0.2 85
2019-09-13 15:00:00 23.2 17 Este 32 Este 0 1013 0.9 77
2019-09-13 14:00:00 23.5 18 Nordeste 36 Este 0 1012.9 1.7 83
2019-09-13 13:00:00 24 14 Nordeste 26 Nordeste 0 1012.7 1.4 84
2019-09-13 12:00:00 22.7 4 Norte 10 Oeste 4.6 1012.1 1.7 95
2019-09-13 11:00:00 21.6 8 Nordeste 36 Este 6 1011.2 0.3 93
2019-09-13 10:00:00 21.6 21 Este 41 Este 2.8 1011.3 -0.2 90
2019-09-13 09:00:00 20.6 15 Nordeste 35 Norte 3.4 1010.4 -1.8 93
2019-09-13 08:00:00 21 19 Norte 29 Norte 0 1010.9 -1.5 86
2019-09-13 07:00:00 19.8 15 Norte 34 Norte 0 1011.5 -2.2 84
2019-09-13 06:00:00 19.6 17 Norte 28 Norte 0.4 1012.2 -1.9 86
2019-09-13 05:00:00 21.1 18 Norte 31 Norte 0 1012.4 -1.6 77
2019-09-13 04:00:00 20.7 6 Nordeste 15 Norte 0 1013.7 -1.3 81
2019-09-13 03:00:00 20.5 6 Noroeste 19 Noroeste 0 1014.1 -1.1 77
2019-09-13 02:00:00 20.2 9 Noroeste 17 Noroeste 0 1014 -1.6 78
2019-09-13 01:00:00 20.2 4 Noroeste 16 Norte 0 1015 -0.6 81
2019-09-13 00:00:00 20.3 9 Norte 16 Norte 0 1015.2 -0.2 81
2019-09-12 23:00:00 20.6 5 Norte 17 Norte 0 1015.6 0.6 79
2019-09-12 22:00:00 20.7 10 Norte 17 Norte 0 1015.6 0.8 77
2019-09-12 21:00:00 21.3 6 Norte 63 Este 0 1015.4 0.7 72
2019-09-12 20:00:00 22.3 11 Nordeste 26 Nordeste 0 1015 0.2 64
2019-09-12 19:00:00 23.6 15 Nordeste 33 Nordeste 0 1014.8 -0.2 61
2019-09-12 18:00:00 23.7 17 Nordeste 33 Nordeste 0 1014.7 -0.4 61
2019-09-12 17:00:00 22.8 9 Norte 19 Norte 0 1014.8 0.3 79
2019-09-12 16:00:00 21.1 11 Norte 30 Norte 0.2 1015 -0.3 80
2019-09-12 15:00:00 21 18 Norte 31 Norte 0 1015.1 -0.9 82
2019-09-12 14:00:00 21.4 14 Nordeste 26 Nordeste 0 1014.5 -0.7 85
2019-09-12 13:00:00 21 12 Nordeste 28 Nordeste 0.4 1015.3 1.5 86
2019-09-12 12:00:00 19.6 12 Este 42 Este 1.8 1016 3.3 92
2019-09-12 11:00:00 19.8 13 Nordeste 28 Nordeste 1.2 1015.2 3.9 93
2019-09-12 10:00:00 19.8 13 Nordeste 49 Este 5.2 1013.8 3.4 91
2019-09-12 09:00:00 19.9 26 Nordeste 56 Este 2 1012.7 1.9 90
2019-09-12 08:00:00 20.1 20 Nordeste 48 Nordeste 3.4 1011.3 0.6 88
2019-09-12 07:00:00 19.5 10 Nordeste 48 Nordeste 5.2 1010.4 0.4 94
2019-09-12 06:00:00 20.3 22 Nordeste 46 Nordeste 0 1010.8 1.1 85
2019-09-12 05:00:00 20.8 27 Nordeste 69 Norte 0 1010.7 -0.1 83
2019-09-12 04:00:00 20.6 17 Nordeste 51 Nordeste 0.4 1010 -0.5 85
2019-09-12 03:00:00 18.4 20 Norte 40 Noroeste 11.2 1009.7 -1.9 95
2019-09-12 02:00:00 18 4 Norte 28 Norte 9.6 1010.8 -1 95
2019-09-12 01:00:00 17.4 9 Oeste 17 Oeste 0.8 1010.5 -1.3 93
2019-09-12 00:00:00 17 6 Noroeste 15 Sudoeste 2.4 1011.6 0 92
2019-09-11 23:00:00 17.4 7 Oeste 16 Sudeste 2.2 1011.8 1 89
2019-09-11 22:00:00 18 4 Sudoeste 20 Noroeste 0 1011.8 1.8 77
2019-09-11 21:00:00 18.2 12 Noroeste 53 Este 0 1011.6 2.1 84
2019-09-11 20:00:00 19 13 Norte 30 Norte 0 1010.8 1.7 83
2019-09-11 19:00:00 19.9 16 Norte 41 Norte 0 1010 1.5 78
2019-09-11 18:00:00 20.3 11 Norte 31 Norte 0 1009.5 1.4 77
2019-09-11 17:00:00 19.8 13 Norte 39 Noroeste 0 1009.1 0.7 77
2019-09-11 16:00:00 19.2 24 Norte 39 Noroeste 0 1008.5 0.6 77
2019-09-11 15:00:00 19.6 12 Norte 27 Norte 0 1008.1 0.3 84
2019-09-11 14:00:00 17.1 9 Noroeste 17 Norte 0 1008.4 2.1 89
2019-09-11 13:00:00 15.9 12 Noroeste 23 Oeste 4.6 1007.9 2.8 91
2019-09-11 12:00:00 15.9 13 Norte 36 Norte 2.6 1007.8 3.7 89
2019-09-11 11:00:00 17.1 17 Norte 34 Noroeste 0 1006.3 2.2 78
2019-09-11 10:00:00 16 9 Norte 23 Norte 0 1005.1 1.7 85
2019-09-11 09:00:00 14.5 10 Oeste 23 Oeste 2 1004.1 0.8 90
2019-09-11 08:00:00 15.1 8 Sudoeste 15 Noroeste 3.2 1004.1 0.7 82
2019-09-11 07:00:00 16 10 Noroeste 23 Noroeste 0.6 1003.4 -0.4 70
2019-09-11 06:00:00 17.3 12 Norte 24 Noroeste 0 1003.3 -0.3 54
2019-09-11 05:00:00 17.8 12 Norte 33 Norte 0 1003.4 -0.1 53
2019-09-11 04:00:00 18.5 12 Noroeste 22 Noroeste 0 1003.8 0 44
2019-09-11 03:00:00 18.1 6 Oeste 14 Oeste 0 1003.6 0.2 43
2019-09-11 02:00:00 17.3 6 Sudoeste 16 Oeste 0 1003.5 0.5 44
2019-09-11 01:00:00 17.9 9 Oeste 21 Noroeste 0 1003.8 1.5 40
2019-09-11 00:00:00 19.2 12 Noroeste 24 Noroeste 0 1003.4 1.5 37
2019-09-10 23:00:00 19.7 13 Noroeste 26 Noroeste 0 1003 2.6 33
2019-09-10 22:00:00 19.5 3 Sudoeste 19 Norte 0 1002.3 2.8 38
2019-09-10 21:00:00 21.7 14 Norte 44 Noroeste 0 1001.9 2.6 31
2019-09-10 20:00:00 23.2 12 Norte 30 Norte 0 1000.4 1.4 23
2019-09-10 19:00:00 24.4 18 Norte 46 Norte 0 999.5 0.8 20
2019-09-10 18:00:00 25.5 19 Norte 48 Norte 0 999.3 0.4 20
2019-09-10 17:00:00 27.3 22 Norte 44 Noroeste 0 999 -0.4 16
2019-09-10 16:00:00 27.5 25 Norte 45 Norte 0 998.7 -0.4 16
2019-09-10 15:00:00 27.1 23 Norte 50 Noroeste 0 998.9 -0.5 22
2019-09-10 14:00:00 23.3 13 Nordeste 44 Norte 0.4 999.4 -0.1 41
2019-09-10 13:00:00 25.4 14 Nordeste 27 Norte 0 999.1 0.4 37
2019-09-10 12:00:00 25.6 17 Norte 36 Norte 0 999.4 1.1 31
2019-09-10 11:00:00 25.7 12 Noroeste 31 Oeste 0 999.5 1.1 26
2019-09-10 10:00:00 23.8 14 Oeste 30 Oeste 0 998.7 0.8 32
2019-09-10 09:00:00 23.3 14 Oeste 28 Sudoeste 0 998.3 0.3 30
2019-09-10 08:00:00 23.7 15 Sudoeste 31 Oeste 0 998.4 -0.2 26
2019-09-10 07:00:00 23.4 14 Sudoeste 34 Oeste 0 997.9 -1.3 30
2019-09-10 06:00:00 24.1 16 Sudoeste 31 Sudoeste 0 998 -1.6 29
2019-09-10 05:00:00 23.7 17 Sudoeste 26 Sudoeste 0 998.6 -1.6 41
2019-09-10 04:00:00 24.2 17 Sudoeste 30 Sudoeste 0 999.2 -1.2 44
2019-09-10 03:00:00 24.2 17 Sudoeste 30 Sudoeste 0 999.6 -1.2 50
2019-09-10 02:00:00 24.4 19 Sudoeste 34 Sudoeste 0 1000.2 -0.8 51
2019-09-10 01:00:00 24.8 15 Sudoeste 33 Sudoeste 0 1000.4 -0.5 52
2019-09-10 00:00:00 25.6 20 Sudoeste 35 Sudoeste 0 1000.8 0.2 48
2019-09-09 23:00:00 25.8 14 Sudoeste 27 Sudoeste 0 1001 0.9 49
2019-09-09 22:00:00 26.7 13 Sudoeste 31 Sudoeste 0 1000.9 0.9 47
2019-09-09 21:00:00 28 16 Sudoeste 36 Sudoeste 0 1000.6 0.3 40
2019-09-09 20:00:00 29.9 18 Sudoeste 42 Sudoeste 0 1000.1 -0.7 33
2019-09-09 19:00:00 30.3 24 Sur 46 Sudoeste 0 1000 -1.6 36
2019-09-09 18:00:00 32.4 13 Sur 35 Sudoeste 0 1000.3 -1.8 31
2019-09-09 17:00:00 30.3 17 Sudeste 34 Sudoeste 0 1000.8 -2.5 33
2019-09-09 16:00:00 32.1 19 Oeste 37 Sudoeste 0 1001.6 -2.8 26
2019-09-09 15:00:00 33.8 13 Sudoeste 34 Sudoeste 0 1002.1 -3.5 23
2019-09-09 14:00:00 32.6 16 Sudoeste 32 Sudoeste 0 1003.3 -2.7 24
2019-09-09 13:00:00 31.6 9 Sudoeste 25 Sudoeste 0 1004.4 -1.9 28
2019-09-09 12:00:00 28.5 7 Este 15 Sudoeste 0 1005.6 -0.6 41
2019-09-09 11:00:00 26.2 10 Oeste 23 Sudoeste 0 1006 -0.2 48
2019-09-09 10:00:00 23.4 4 Oeste 12 Sudoeste 0 1006.3 0.4 62
2019-09-09 09:00:00 20.3 0 Calma 6 Oeste 0 1006.2 0.4 80
2019-09-09 08:00:00 18.6 4 Oeste 7 Noroeste 0 1006.2 0.1 85
2019-09-09 07:00:00 18.6 3 Noroeste 10 Sudoeste 0 1005.9 -0.6 83
2019-09-09 06:00:00 18.9 3 Oeste 9 Oeste 0 1005.8 -0.9 81
2019-09-09 05:00:00 19.5 3 Oeste 12 Oeste 0 1006.1 -1 79
2019-09-09 04:00:00 20.6 6 Oeste 16 Sudoeste 0 1006.5 -0.2 75
2019-09-09 03:00:00 21.4 6 Sudoeste 14 Sur 0 1006.7 -0.2 70
2019-09-09 02:00:00 20.5 5 Oeste 9 Oeste 0 1007.1 0.5 80
2019-09-09 01:00:00 21.8 0 Calma 7 Noroeste 0 1006.7 0.4 72
2019-09-09 00:00:00 22.1 0 Calma 8 Sudoeste 0 1006.9 1.8 71
2019-09-08 23:00:00 23 5 Sudoeste 14 Oeste 0 1006.6 2.1 66
2019-09-08 22:00:00 23.6 3 Oeste 15 Oeste 0 1006.3 2.1 64
2019-09-08 21:00:00 25.5 7 Oeste 51 Sudeste 0 1005.1 0.8 55
2019-09-08 20:00:00 27.9 9 Sudeste 17 Sudeste 0 1004.5 -0.1 44
2019-09-08 19:00:00 29.4 10 Sudeste 18 Sudeste 0 1004.2 -0.8 40
2019-09-08 18:00:00 30.3 9 Sudeste 20 Sudeste 0 1004.3 -1.5 37
2019-09-08 17:00:00 30 9 Sudeste 22 Sudeste 0 1004.6 -1.9 37
2019-09-08 16:00:00 29.8 9 Sur 19 Sudeste 0 1005 -2.2 35
2019-09-08 15:00:00 30.1 13 Sudeste 21 Sudeste 0 1005.8 -1.9 30
2019-09-08 14:00:00 28.4 9 Nordeste 15 Sudeste 0 1006.5 -1.3 38
2019-09-08 13:00:00 27.3 8 Este 25 Sudeste 0 1007.2 -0.7 43
2019-09-08 12:00:00 26.1 5 Nordeste 11 Norte 0 1007.7 0.2 50
2019-09-08 11:00:00 24.4 2 Noroeste 9 Sur 0 1007.8 0.5 60
2019-09-08 10:00:00 21.4 3 Oeste 7 Oeste 0 1007.9 0.7 73
2019-09-08 09:00:00 19.1 4 Oeste 8 Oeste 0 1007.5 0.3 82
2019-09-08 08:00:00 17.6 4 Sudoeste 12 Sudoeste 0 1007.3 0 87
2019-09-08 07:00:00 17.6 4 Sudoeste 12 Oeste 0 1007.2 -0.5 87
2019-09-08 06:00:00 17.8 8 Oeste 12 Oeste 0 1007.2 -0.9 89
2019-09-08 05:00:00 18.6 5 Sudoeste 10 Oeste 0 1007.3 -1 87
2019-09-08 04:00:00 18.6 6 Oeste 10 Oeste 0 1007.7 -1 89
2019-09-08 03:00:00 19.3 3 Sur 5 Sur 0 1008.1 -0.6 87
2019-09-08 02:00:00 19.8 2 Sur 7 Oeste 0 1008.3 -0.2 82
2019-09-08 01:00:00 20 3 Sudoeste 9 Oeste 0 1008.7 0.4 82
2019-09-08 00:00:00 21.1 6 Sudoeste 12 Oeste 0 1008.7 1.4 77
2019-09-07 23:00:00 21.3 0 Calma 8 Oeste 0 1008.5 1.8 75
2019-09-07 22:00:00 21.8 4 Norte 10 Norte 0 1008.3 1.7 73
2019-09-07 21:00:00 23.2 5 Nordeste 15 Este 0 1007.3 0.2 63
2019-09-07 20:00:00 25.1 9 Este 23 Sudeste 0 1006.7 -0.7 54
2019-09-07 19:00:00 26.6 14 Sudeste 24 Este 0 1006.6 -1.4 49
2019-09-07 18:00:00 26.6 8 Nordeste 18 Nordeste 0 1007.1 -1.5 49
2019-09-07 17:00:00 25.8 14 Este 28 Nordeste 0 1007.4 -1.7 54
2019-09-07 16:00:00 25.7 14 Nordeste 28 Nordeste 0 1008 -1.4 56
2019-09-07 15:00:00 25 17 Norte 28 Norte 0 1008.6 -1.3 57
2019-09-07 14:00:00 25.1 17 Nordeste 31 Norte 0 1009.1 -0.9 62
2019-09-07 13:00:00 24.9 15 Norte 29 Nordeste 0 1009.4 -0.5 65
2019-09-07 12:00:00 24.2 9 Nordeste 22 Norte 0 1009.9 0.4 66
2019-09-07 11:00:00 22.3 7 Norte 14 Norte 0 1010 1 78
2019-09-07 10:00:00 21.5 7 Norte 16 Nordeste 0 1009.9 1.3 81
2019-09-07 09:00:00 21 0 Calma 4 Norte 0 1009.5 1.1 87
2019-09-07 08:00:00 19 2 Oeste 6 Oeste 0 1009 0.4 93
2019-09-07 07:00:00 18.9 5 Oeste 7 Sudoeste 0 1008.6 -0.1 94
2019-09-07 06:00:00 18.4 4 Oeste 6 Sudoeste 0 1008.4 -0.4 93
2019-09-07 05:00:00 19.2 2 Sudoeste 8 Oeste 0 1008.6 -0.4 92
2019-09-07 04:00:00 19.2 0 Calma 5 Sudoeste 0 1008.7 -0.2 90
2019-09-07 03:00:00 19.5 3 Noroeste 7 Sudoeste 0 1008.8 -0.1 89
2019-09-07 02:00:00 20.6 3 Oeste 9 Oeste 0 1009 0.4 87
2019-09-07 01:00:00 21.3 4 Oeste 9 Oeste 0 1008.9 0.6 84
2019-09-07 00:00:00 21.6 4 Oeste 10 Oeste 0 1008.9 1.5 83
2019-09-06 23:00:00 22 5 Oeste 8 Sudoeste 0 1008.6 1.5 80
2019-09-06 22:00:00 22.7 4 Oeste 9 Nordeste 0 1008.3 1.3 75
2019-09-06 21:00:00 23.3 3 Norte 9 Norte 0 1007.4 0.3 69
2019-09-06 20:00:00 24.6 6 Norte 23 Nordeste 0 1007.1 -0.1 63
2019-09-06 19:00:00 25.3 14 Nordeste 25 Nordeste 0 1007 -0.8 58
2019-09-06 18:00:00 25.9 15 Nordeste 29 Nordeste 0 1007.1 -1.2 57
2019-09-06 17:00:00 26.6 17 Nordeste 29 Nordeste 0 1007.2 -1.9 50
2019-09-06 16:00:00 26.7 13 Nordeste 31 Norte 0 1007.8 -1.6 48
2019-09-06 15:00:00 27 12 Nordeste 27 Nordeste 0 1008.3 -1.4 45
2019-09-06 14:00:00 26.4 10 Nordeste 22 Este 0 1009.1 -0.7 46
2019-09-06 13:00:00 24.9 10 Nordeste 21 Nordeste 0 1009.4 -0.2 50
2019-09-06 12:00:00 25.1 7 Nordeste 24 Norte 0 1009.7 0.2 47
2019-09-06 11:00:00 24 12 Norte 21 Norte 0 1009.8 0.8 48
2019-09-06 10:00:00 23.1 10 Norte 15 Norte 0 1009.6 1.1 47
2019-09-06 09:00:00 21.9 7 Norte 10 Norte 0 1009.5 1.3 52
2019-09-06 08:00:00 20.4 5 Este 8 Sudeste 0.2 1009 1 75
2019-09-06 07:00:00 21 3 Este 12 Norte 0 1008.5 0.7 76
2019-09-06 06:00:00 21.4 4 Norte 6 Sudeste 0 1008.2 0.1 85
2019-09-06 05:00:00 21.1 4 Este 13 Nordeste 0 1008 -0.4 86
2019-09-06 04:00:00 21.5 5 Oeste 8 Sudoeste 0 1007.8 -0.6 83
2019-09-06 03:00:00 21.6 3 Oeste 8 Oeste 0 1008.1 -0.2 82
2019-09-06 02:00:00 21.8 3 Este 9 Oeste 0 1008.4 0.6 80
2019-09-06 01:00:00 22.5 5 Sudoeste 10 Sudoeste 0 1008.4 0.9 75
2019-09-06 00:00:00 23 5 Sudoeste 9 Oeste 0 1008.3 1.6 72
2019-09-05 23:00:00 23.7 3 Noroeste 7 Norte 0 1007.8 1.7 69
2019-09-05 22:00:00 23.9 3 Norte 14 Nordeste 0 1007.5 1.6 67
2019-09-05 21:00:00 24.3 10 Nordeste 17 Este 0 1006.7 0.9 62
2019-09-05 20:00:00 26.5 13 Este 22 Sudeste 0 1006.1 0.2 51
2019-09-05 19:00:00 28.6 14 Sudeste 24 Sudeste 0 1005.9 -0.7 44
2019-09-05 18:00:00 29 16 Este 28 Sudeste 0 1005.8 -1.2 44
2019-09-05 17:00:00 29.1 10 Este 23 Sudeste 0 1005.9 -1.7 40
2019-09-05 16:00:00 29.8 10 Este 23 Este 0 1006.6 -1 38
2019-09-05 15:00:00 28.7 9 Este 23 Este 0 1007 -0.6 42
2019-09-05 14:00:00 27 13 Este 24 Nordeste 0 1007.6 -0.1 49
2019-09-05 13:00:00 27.5 16 Este 26 Este 0 1007.6 0 50
2019-09-05 12:00:00 27.7 15 Este 23 Este 0 1007.6 0.4 52
2019-09-05 11:00:00 26.2 11 Este 17 Nordeste 0 1007.7 0.9 69
2019-09-05 10:00:00 24.8 5 Norte 12 Norte 0 1007.6 1.4 80
2019-09-05 09:00:00 23.5 4 Nordeste 6 Nordeste 0 1007.2 1.2 89
2019-09-05 08:00:00 23 0 Calma 7 Sudoeste 0 1006.8 1.2 90
2019-09-05 07:00:00 22.9 0 Calma 5 Oeste 0 1006.2 0.6 90
2019-09-05 06:00:00 23.1 0 Calma 6 Nordeste 0 1006 0.2 89
2019-09-05 05:00:00 23.6 4 Norte 11 Noroeste 0 1005.6 -0.5 87
2019-09-05 04:00:00 23.9 4 Oeste 10 Noroeste 0 1005.6 -0.8 85
2019-09-05 03:00:00 24.1 4 Noroeste 10 Noroeste 0 1005.8 -0.7 85
2019-09-05 02:00:00 24.4 2 Norte 9 Norte 0 1006.1 -0.3 82
2019-09-05 01:00:00 25.1 0 Calma 13 Noroeste 0 1006.4 0.6 78
2019-09-05 00:00:00 25.2 4 Norte 10 Norte 0 1006.5 1.4 78
2019-09-04 23:00:00 25.7 4 Norte 10 Noroeste 0 1006.4 1.7 68
2019-09-04 22:00:00 26.9 7 Norte 49 Noroeste 0 1005.8 1.2 57
2019-09-04 21:00:00 27.9 7 Norte 14 Norte 0 1005.1 0.5 55
2019-09-04 20:00:00 29.2 9 Nordeste 21 Nordeste 0 1004.7 -0.2 52
2019-09-04 19:00:00 30.6 13 Nordeste 23 Nordeste 0 1004.6 -0.8 46
2019-09-04 18:00:00 31.6 12 Nordeste 27 Nordeste 0 1004.6 -1.6 46
2019-09-04 17:00:00 31.7 15 Nordeste 30 Noroeste 0 1004.9 -2.2 47
2019-09-04 16:00:00 32.8 8 Nordeste 20 Este 0 1005.4 -2.5 37
2019-09-04 15:00:00 32.1 7 Norte 18 Nordeste 0 1006.2 -2.5 44
2019-09-04 14:00:00 30.9 8 Nordeste 19 Nordeste 0 1007.1 -1.7 44
2019-09-04 13:00:00 29.1 6 Este 13 Este 0 1007.9 -0.9 54
2019-09-04 12:00:00 27.7 4 Nordeste 14 Este 0 1008.7 0 62
2019-09-04 11:00:00 26.4 5 Este 8 Este 0 1008.8 0.3 69
2019-09-04 10:00:00 24.6 4 Oeste 7 Oeste 0 1008.8 0.5 77
2019-09-04 09:00:00 23.6 4 Oeste 9 Oeste 0 1008.7 0.4 83
2019-09-04 08:00:00 23.1 4 Oeste 7 Oeste 0 1008.5 0.1 88
2019-09-04 07:00:00 22.9 0 Calma 4 Norte 0 1008.3 -0.6 92
2019-09-04 06:00:00 23.2 2 Este 6 Este 0 1008.3 -1 90
2019-09-04 05:00:00 23.5 3 Este 8 Noroeste 0 1008.4 -1.2 88
2019-09-04 04:00:00 23.8 3 Noroeste 7 Oeste 0 1008.9 -0.8 87
2019-09-04 03:00:00 23.9 3 Oeste 11 Noroeste 0 1009.3 -0.4 86
2019-09-04 02:00:00 24.2 5 Oeste 10 Oeste 0 1009.6 0.2 85
2019-09-04 01:00:00 24.4 5 Oeste 10 Oeste 0 1009.7 0.5 83
2019-09-04 00:00:00 24.6 5 Oeste 10 Noroeste 0 1009.7 1.3 80
2019-09-03 23:00:00 25.2 4 Norte 14 Noroeste 0 1009.4 1.7 76
2019-09-03 22:00:00 26 9 Noroeste 53 Este 0 1009.2 1.8 73
2019-09-03 21:00:00 26.9 8 Norte 14 Nordeste 0 1008.4 1.1 64
2019-09-03 20:00:00 28.7 8 Nordeste 24 Nordeste 0 1007.7 0.3 56
2019-09-03 19:00:00 29.6 15 Nordeste 25 Este 0 1007.4 -0.7 54
2019-09-03 18:00:00 31 17 Nordeste 28 Nordeste 0 1007.3 -1.6 48
2019-09-03 17:00:00 32.1 14 Nordeste 27 Nordeste 0 1007.4 -2.2 45
2019-09-03 16:00:00 32.8 5 Noroeste 17 Nordeste 0 1008.1 -2.1 39
2019-09-03 15:00:00 31.6 11 Este 18 Nordeste 0 1008.9 -1.8 40
2019-09-03 14:00:00 31 6 Sudeste 13 Norte 0 1009.6 -1.3 40
2019-09-03 13:00:00 29.7 6 Norte 14 Este 0 1010.2 -0.6 48
2019-09-03 12:00:00 28.6 5 Norte 13 Norte 0 1010.7 0.1 53
2019-09-03 11:00:00 27.1 3 Noroeste 11 Oeste 0 1010.9 0.7 63
2019-09-03 10:00:00 24.6 3 Oeste 7 Oeste 0 1010.8 1 79
2019-09-03 09:00:00 22.2 0 Calma 4 Nordeste 0 1010.6 0.9 91
2019-09-03 08:00:00 20.3 0 Calma 4 Oeste 0 1010.2 0.6 95
2019-09-03 07:00:00 20.4 0 Calma 4 Norte 0 1009.8 0.1 94
2019-09-03 06:00:00 20.9 2 Sudoeste 5 Oeste 0 1009.7 -0.1 93
2019-09-03 05:00:00 21 4 Oeste 6 Oeste 0 1009.6 -0.1 93
2019-09-03 04:00:00 21.2 0 Calma 6 Norte 0 1009.7 0.3 92
2019-09-03 03:00:00 21.7 4 Oeste 6 Oeste 0 1009.8 0.7 90
2019-09-03 02:00:00 22.3 4 Sudoeste 9 Oeste 0 1009.7 0.7 88
2019-09-03 01:00:00 22.9 5 Oeste 10 Oeste 0 1009.4 1.1 86
2019-09-03 00:00:00 23.2 5 Sudoeste 10 Sudoeste 0 1009.1 1.9 84
2019-09-02 23:00:00 23.3 6 Sudoeste 10 Oeste 0 1009 2.3 83
2019-09-02 22:00:00 23.9 5 Oeste 10 Noroeste 0 1008.3 2.1 77
2019-09-02 21:00:00 25.2 3 Nordeste 21 Sudeste 0 1007.2 0.5 68
2019-09-02 20:00:00 26.9 8 Sudeste 23 Sudeste 0 1006.7 -0.3 59
2019-09-02 19:00:00 28.2 6 Este 19 Norte 0 1006.2 -1.4 56
2019-09-02 18:00:00 29.5 6 Nordeste 17 Norte 0 1006.7 -1.6 49
2019-09-02 17:00:00 28.6 6 Nordeste 17 Nordeste 0 1007 -2 51
2019-09-02 16:00:00 27.6 7 Este 14 Nordeste 0 1007.6 -1.5 53
2019-09-02 15:00:00 27 6 Nordeste 16 Nordeste 0.2 1008.3 -0.9 62
2019-09-02 14:00:00 24.8 5 Este 14 Sudeste 0 1009 0.2 72
2019-09-02 13:00:00 24 9 Este 14 Este 0 1009.1 0.3 81
2019-09-02 12:00:00 21.8 5 Oeste 17 Oeste 0 1009.2 1.8 91
2019-09-02 11:00:00 21 5 Sudeste 12 Este 0 1008.8 1.1 94
2019-09-02 10:00:00 20.5 4 Nordeste 18 Noroeste 0 1008.8 1.7 94
2019-09-02 09:00:00 20.2 6 Norte 12 Oeste 0 1007.4 0.5 94
2019-09-02 08:00:00 20.6 7 Oeste 18 Oeste 0 1007.7 1.3 92
2019-09-02 07:00:00 21.6 3 Nordeste 21 Norte 0 1007.1 1 84
2019-09-02 06:00:00 22.2 6 Nordeste 20 Noroeste 0 1006.9 1.9 82
2019-09-02 05:00:00 23.2 3 Sur 33 Norte 0 1006.4 1.4 82
2019-09-02 04:00:00 24.8 17 Norte 32 Norte 0 1006.1 1.7 72
2019-09-02 03:00:00 24.6 4 Norte 16 Norte 0 1005 0.7 78
2019-09-02 02:00:00 25 9 Norte 15 Norte 0 1005 0.8 83
2019-09-02 01:00:00 24.9 5 Oeste 13 Oeste 0 1004.4 0.4 80
2019-09-02 00:00:00 25.5 6 Sudoeste 13 Sudoeste 0 1004.3 1.1 77
2019-09-01 23:00:00 25.8 5 Oeste 19 Noroeste 0 1004.2 2.7 76
2019-09-01 22:00:00 26.2 9 Norte 42 Norte 0 1004 3.8 74
2019-09-01 21:00:00 26.8 19 Norte 38 Norte 0 1003.2 3.1 72
2019-09-01 20:00:00 28.5 19 Norte 37 Norte 0 1001.5 1.1 60
2019-09-01 19:00:00 34.9 11 Sudeste 20 Este 0 1000.2 -0.5 27
2019-09-01 18:00:00 35.7 6 Sur 21 Sudeste 0 1000.1 -1.2 25
2019-09-01 17:00:00 36.5 12 Sudeste 25 Sudeste 0 1000.4 -1.6 24
2019-09-01 16:00:00 35.9 13 Nordeste 23 Nordeste 0 1000.7 -2 24
2019-09-01 15:00:00 37.3 6 Nordeste 17 Nordeste 0 1001.3 -2 15
2019-09-01 14:00:00 36.1 8 Este 18 Este 0 1002 -1.8 17
2019-09-01 13:00:00 34.6 6 Nordeste 14 Norte 0 1002.7 -1.1 27
2019-09-01 12:00:00 32.4 5 Nordeste 12 Norte 0 1003.3 -0.6 35
2019-09-01 11:00:00 29.7 2 Norte 8 Oeste 0 1003.8 0.2 42
2019-09-01 10:00:00 26.6 3 Sur 8 Oeste 0 1003.8 0.5 52
2019-09-01 09:00:00 22.7 6 Oeste 12 Oeste 0 1003.9 0.7 66
2019-09-01 08:00:00 20.3 7 Oeste 11 Oeste 0 1003.6 0.1 76
2019-09-01 07:00:00 19.7 6 Oeste 12 Oeste 0 1003.3 -0.6 78
2019-09-01 06:00:00 20 7 Oeste 11 Oeste 0 1003.2 -0.8 76
2019-09-01 05:00:00 20.5 8 Oeste 12 Oeste 0 1003.5 -0.8 71
2019-09-01 04:00:00 20.9 6 Oeste 10 Oeste 0 1003.9 -0.3 69
2019-09-01 03:00:00 21.7 5 Oeste 10 Oeste 0 1004 -0.4 66
2019-09-01 02:00:00 22.3 5 Oeste 10 Oeste 0 1004.3 -0.1 63
2019-09-01 01:00:00 23.1 3 Sudoeste 9 Sur 0 1004.2 0.4 61
2019-09-01 00:00:00 24.5 6 Oeste 9 Oeste 0 1004.4 1.4 58
2019-08-31 23:00:00 26.1 3 Oeste 9 Sudoeste 0 1004.4 1.7 52
2019-08-31 22:00:00 27.4 3 Oeste 18 Sudoeste 0 1003.8 1.5 47
2019-08-31 21:00:00 29.4 5 Norte 10 Norte 0 1003 0.7 40
2019-08-31 20:00:00 33 8 Nordeste 13 Este 0 1002.7 0.2 28
2019-08-31 19:00:00 34.9 9 Este 21 Sudeste 0 1002.3 -1 22
2019-08-31 18:00:00 36.4 8 Sur 23 Sur 0 1002.3 -1.9 21
2019-08-31 17:00:00 36.4 6 Este 24 Norte 0 1002.5 -2.5 22
2019-08-31 16:00:00 35.3 12 Nordeste 23 Nordeste 0 1003.3 -2.2 25
2019-08-31 15:00:00 35.3 4 Este 23 Este 0 1004.2 -1.7 25
2019-08-31 14:00:00 34.7 7 Noroeste 19 Norte 0 1005 -1.1 25
2019-08-31 13:00:00 33.6 5 Este 14 Este 0 1005.5 -0.6 27
2019-08-31 12:00:00 31.6 6 Nordeste 13 Nordeste 0 1005.9 -0.1 35
2019-08-31 11:00:00 28.6 3 Oeste 11 Sudoeste 0 1006.1 0.2 42
2019-08-31 10:00:00 25.4 6 Sudoeste 16 Oeste 0 1006.1 0.5 51
2019-08-31 09:00:00 21.9 7 Oeste 13 Sudoeste 0 1006 0.2 66
2019-08-31 08:00:00 19.8 6 Sudoeste 13 Sudoeste 0 1005.9 -0.2 75
2019-08-31 07:00:00 19.8 6 Oeste 14 Sudoeste 0 1005.6 -1.1 74
2019-08-31 06:00:00 20 5 Sudoeste 14 Sudoeste 0 1005.8 -1.3 73
2019-08-31 05:00:00 21.1 8 Sudoeste 18 Sudoeste 0 1006.1 -1.4 70
2019-08-31 04:00:00 21.4 7 Sudoeste 12 Sudoeste 0 1006.7 -1.1 71
2019-08-31 03:00:00 21.6 8 Oeste 12 Oeste 0 1007.1 -0.7 73
2019-08-31 02:00:00 22.2 7 Oeste 10 Oeste 0 1007.5 -0.5 73
2019-08-31 01:00:00 23.4 5 Oeste 10 Sudoeste 0 1007.8 0 72
2019-08-31 00:00:00 24.6 5 Sudoeste 50 Este 0 1007.8 0.7 69
2019-08-30 23:00:00 25.4 4 Norte 14 Norte 0 1008 1.4 66
2019-08-30 22:00:00 26.5 3 Nordeste 13 Noroeste 0 1007.8 1.4 56
2019-08-30 21:00:00 28.2 3 Este 15 Norte 0 1007.1 0.8 47
2019-08-30 20:00:00 30.7 9 Norte 17 Norte 0 1006.6 0.5 36
2019-08-30 19:00:00 33.4 11 Este 22 Nordeste 0 1006.4 -0.4 30
2019-08-30 18:00:00 34.4 14 Nordeste 25 Nordeste 0 1006.3 -1.3 28
2019-08-30 17:00:00 35.1 13 Nordeste 23 Este 0 1006.1 -2.1 27
2019-08-30 16:00:00 35 15 Nordeste 31 Norte 0 1006.8 -2.1 27
2019-08-30 15:00:00 34.4 14 Norte 24 Nordeste 0 1007.6 -1.9 34
2019-08-30 14:00:00 33.9 7 Nordeste 18 Nordeste 0 1008.2 -1.4 32
2019-08-30 13:00:00 32.7 5 Nordeste 16 Este 0 1008.9 -0.8 33
2019-08-30 12:00:00 31.2 5 Norte 12 Norte 0 1009.5 -0.2 35
2019-08-30 11:00:00 28.8 3 Nordeste 13 Oeste 0 1009.6 -0.1 41
2019-08-30 10:00:00 25.1 8 Sudoeste 17 Oeste 0 1009.7 0.5 54
2019-08-30 09:00:00 22.6 7 Oeste 16 Oeste 0 1009.7 0.8 64
2019-08-30 08:00:00 20.9 10 Sudoeste 16 Sudoeste 0 1009.7 0.7 71
2019-08-30 07:00:00 20.8 8 Sudoeste 14 Sudoeste 0 1009.2 0.3 72
2019-08-30 06:00:00 20.6 7 Oeste 13 Oeste 0 1008.9 -0.4 75
2019-08-30 05:00:00 21.2 8 Oeste 15 Oeste 0 1009 -0.7 72
2019-08-30 04:00:00 21.4 8 Oeste 12 Oeste 0 1008.9 -0.8 73
2019-08-30 03:00:00 22.2 6 Oeste 9 Oeste 0 1009.3 -0.3 73
2019-08-30 02:00:00 23.1 5 Oeste 8 Oeste 0 1009.7 0.8 71
2019-08-30 01:00:00 24.3 3 Sudeste 6 Este 0 1009.7 1.1 63
2019-08-30 00:00:00 25 0 Calma 11 Norte 0 1009.6 2.1 59
2019-08-29 23:00:00 26.1 3 Este 15 Oeste 0 1008.9 1.8 53
2019-08-29 22:00:00 27.2 6 Sudoeste 16 Oeste 0 1008.6 1.8 49
2019-08-29 21:00:00 28.8 3 Noroeste 11 Norte 0 1007.5 0.8 46
2019-08-29 20:00:00 31.3 8 Este 21 Este 0 1007.1 0.2 37
2019-08-29 19:00:00 33.2 15 Sudeste 28 Este 0 1006.8 -0.4 32
2019-08-29 18:00:00 34.2 14 Este 23 Sudeste 0 1006.7 -1.1 30
2019-08-29 17:00:00 35.3 9 Este 22 Nordeste 0 1006.9 -1.4 29
2019-08-29 16:00:00 35 9 Nordeste 18 Nordeste 0 1007.2 -1.6 29
2019-08-29 15:00:00 33.9 9 Nordeste 21 Este 0 1007.8 -1.2 30
2019-08-29 14:00:00 32.9 5 Este 14 Nordeste 0 1008.3 -0.9 32
2019-08-29 13:00:00 31.7 6 Nordeste 15 Nordeste 0 1008.8 -0.3 37
2019-08-29 12:00:00 29.9 4 Nordeste 10 Norte 0 1009 0.2 36
2019-08-29 11:00:00 27.8 3 Sudoeste 11 Oeste 0 1009.2 0.9 46
2019-08-29 10:00:00 24.6 2 Sudoeste 7 Sudoeste 0 1009.1 0.9 64
2019-08-29 09:00:00 21.2 5 Oeste 12 Oeste 0 1008.8 0.9 77
2019-08-29 08:00:00 19 6 Sudoeste 10 Sudoeste 0 1008.3 0.2 84
2019-08-29 07:00:00 18.5 7 Oeste 11 Oeste 0 1008.2 -0.1 85
2019-08-29 06:00:00 18.8 4 Sudoeste 10 Sudoeste 0 1007.9 -0.5 82
2019-08-29 05:00:00 19.4 7 Oeste 11 Oeste 0 1008.1 0.1 79
2019-08-29 04:00:00 19.8 5 Sudoeste 15 Sudoeste 0 1008.3 -0.1 76
2019-08-29 03:00:00 20.3 9 Oeste 14 Sudoeste 0 1008.4 0.3 76
2019-08-29 02:00:00 21 6 Oeste 12 Oeste 0 1008 0.4 78
2019-08-29 01:00:00 22 7 Oeste 10 Oeste 0.2 1008.4 1.5 77
2019-08-29 00:00:00 22.7 5 Oeste 10 Oeste 0 1008.1 2.2 76
2019-08-28 23:00:00 23.4 6 Sudoeste 10 Oeste 0 1007.6 2.4 72
2019-08-28 22:00:00 24.5 6 Sudoeste 13 Sudoeste 0 1006.9 1.9 64
2019-08-28 21:00:00 26.3 4 Sudoeste 17 Norte 0 1005.9 0.9 53
2019-08-28 20:00:00 28.5 13 Norte 23 Norte 0 1005.2 -0.1 42
2019-08-28 19:00:00 31.5 15 Norte 24 Norte 0 1005 -0.6 31
2019-08-28 18:00:00 32.4 15 Norte 24 Norte 0 1005 -0.9 29
2019-08-28 17:00:00 32.7 13 Norte 28 Norte 0 1005.3 -1 28
2019-08-28 16:00:00 32.5 14 Norte 26 Nordeste 0 1005.6 -1.1 30
2019-08-28 15:00:00 31.7 10 Nordeste 26 Norte 0 1005.9 -1 31
2019-08-28 14:00:00 30.8 8 Nordeste 21 Nordeste 0 1006.3 -0.5 33
2019-08-28 13:00:00 29.7 7 Este 15 Este 0 1006.7 0.1 35
2019-08-28 12:00:00 28.1 4 Norte 13 Nordeste 0 1006.9 0 41
2019-08-28 11:00:00 26 3 Este 9 Este 0 1006.8 0.2 51
2019-08-28 10:00:00 22.2 4 Oeste 14 Sudoeste 0 1006.6 0.2 69
2019-08-28 09:00:00 19.3 8 Sudoeste 14 Sudoeste 0 1006.9 0.7 79
2019-08-28 08:00:00 17.1 2 Oeste 12 Oeste 0 1006.6 0.3 90
2019-08-28 07:00:00 17 5 Sudoeste 8 Noroeste 0 1006.4 -0.3 90
2019-08-28 06:00:00 17.2 4 Oeste 14 Oeste 0 1006.2 -0.5 91
2019-08-28 05:00:00 17.2 7 Oeste 12 Oeste 0 1006.3 -0.7 92
2019-08-28 04:00:00 17.8 2 Sur 11 Sudoeste 0 1006.7 -0.2 92
2019-08-28 03:00:00 18.1 6 Sudoeste 11 Sudoeste 0 1006.7 0 90
2019-08-28 02:00:00 18.6 7 Sudoeste 13 Oeste 0 1007 0.5 89
2019-08-28 01:00:00 18.8 9 Oeste 15 Oeste 0 1006.9 0.2 90
2019-08-28 00:00:00 19 6 Oeste 12 Sudoeste 0 1006.7 0.8 92
2019-08-27 23:00:00 19.4 5 Oeste 12 Oeste 0 1006.5 0.4 91
2019-08-27 22:00:00 20.2 2 Este 10 Noroeste 0 1006.7 2 90
2019-08-27 21:00:00 20.6 2 Norte 19 Sudoeste 0 1005.9 2.6 87
2019-08-27 20:00:00 21.1 9 Oeste 39 Oeste 0 1006.1 2.8 80
2019-08-27 19:00:00 26.6 24 Noroeste 45 Noroeste 0 1004.7 0.8 51
2019-08-27 18:00:00 30.4 6 Nordeste 15 Nordeste 0 1003.3 -1.3 38
2019-08-27 17:00:00 30.6 3 Sur 14 Este 0 1003.3 -2 40
2019-08-27 16:00:00 28.9 5 Este 17 Nordeste 0 1003.9 -2.3 45
2019-08-27 15:00:00 28.9 5 Sudeste 15 Este 0.2 1004.6 -1.4 46
2019-08-27 14:00:00 27.3 5 Este 17 Nordeste 0 1005.3 -0.7 52
2019-08-27 13:00:00 25.3 9 Este 17 Este 0 1006.2 0.3 58
2019-08-27 12:00:00 23.7 4 Sur 13 Oeste 0 1006 0.5 68
2019-08-27 11:00:00 21 3 Sudoeste 10 Oeste 0 1006 0.6 81
2019-08-27 10:00:00 20 6 Sudoeste 11 Sur 0 1005.9 1.1 83
2019-08-27 09:00:00 19.7 5 Sudoeste 13 Noroeste 0 1005.5 0.4 88
2019-08-27 08:00:00 18.6 4 Oeste 15 Oeste 0.2 1005.4 0.3 90
2019-08-27 07:00:00 18.7 5 Sudoeste 13 Sur 0.4 1004.8 -0.9 91
2019-08-27 06:00:00 18.6 5 Sur 14 Nordeste 0.6 1005.1 0.5 86
2019-08-27 05:00:00 18.6 5 Nordeste 21 Norte 0.6 1005.1 -0.1 91
2019-08-27 04:00:00 19.6 5 Sudoeste 45 Noroeste 0 1005.7 0.5 83
2019-08-27 03:00:00 23 6 Oeste 13 Oeste 0 1004.6 -0.3 95
2019-08-27 02:00:00 23.4 5 Oeste 11 Oeste 0 1005.2 0 91
2019-08-27 01:00:00 23.4 8 Oeste 13 Noroeste 0.2 1005.2 1.2 91
2019-08-27 00:00:00 24 2 Sudoeste 6 Oeste 0 1004.9 1 88
2019-08-26 23:00:00 24.1 4 Sudoeste 13 Norte 0 1005.2 1.6 87
2019-08-26 22:00:00 23.7 9 Norte 17 Nordeste 0 1004 -0.2 87
2019-08-26 21:00:00 24.8 15 Norte 31 Este 0 1003.9 -0.5 79
2019-08-26 20:00:00 26.5 13 Nordeste 24 Nordeste 0 1003.6 -0.9 65
2019-08-26 19:00:00 27.1 14 Nordeste 27 Nordeste 0 1004.2 -0.7 62
2019-08-26 18:00:00 27.8 18 Nordeste 28 Nordeste 0 1004.4 -1.1 56
2019-08-26 17:00:00 28 16 Nordeste 31 Nordeste 0 1004.5 -0.9 55
2019-08-26 16:00:00 28.9 15 Nordeste 29 Este 0 1004.9 -1.2 49
2019-08-26 15:00:00 29.1 16 Nordeste 34 Nordeste 0 1005.5 -1.6 50
2019-08-26 14:00:00 29.1 17 Nordeste 42 Este 0 1005.4 -0.6 51
2019-08-26 13:00:00 27.9 10 Nordeste 21 Este 0 1006.1 0.1 58
2019-08-26 12:00:00 26.9 12 Norte 20 Noroeste 0 1007.1 1.1 63
2019-08-26 11:00:00 26.4 7 Nordeste 14 Nordeste 0 1006 -0.1 65
2019-08-26 10:00:00 24.6 2 Norte 13 Oeste 0 1006 -0.2 71
2019-08-26 09:00:00 21.7 4 Oeste 10 Oeste 0 1006 0.1 77
2019-08-26 08:00:00 19.8 4 Sudoeste 10 Sudoeste 0 1006.1 0.2 81
2019-08-26 07:00:00 19.9 3 Oeste 8 Sudoeste 0 1006.2 0.4 81
2019-08-26 06:00:00 20.2 5 Oeste 13 Sudoeste 0 1005.9 -0.3 79
2019-08-26 05:00:00 19.9 7 Oeste 10 Oeste 0 1005.9 -0.6 80
2019-08-26 04:00:00 20.6 6 Sudoeste 15 Sudoeste 0 1005.8 -0.8 76
2019-08-26 03:00:00 20.8 9 Sudoeste 15 Sudoeste 0 1006.2 -0.4 77
2019-08-26 02:00:00 21.4 7 Oeste 12 Oeste 0 1006.5 0.1 76
2019-08-26 01:00:00 22.5 7 Sudoeste 11 Sudoeste 0 1006.6 0.5 77
2019-08-26 00:00:00 23.1 4 Sudoeste 9 Sudoeste 0 1006.6 1.3 69
2019-08-25 23:00:00 23.6 4 Norte 14 Norte 0 1006.4 1.3 66
2019-08-25 22:00:00 25 9 Norte 25 Sudeste 0 1006.1 1.2 57
2019-08-25 21:00:00 27 12 Este 19 Nordeste 0 1005.3 0.4 46
2019-08-25 20:00:00 29.1 10 Este 27 Sudeste 0 1005.1 0.2 43
2019-08-25 19:00:00 31.2 18 Sudeste 36 Este 0 1004.9 -0.2 33
2019-08-25 18:00:00 32.1 21 Este 37 Este 0 1004.9 -0.6 32
2019-08-25 17:00:00 32.8 22 Este 36 Este 0 1004.9 -1.2 29
2019-08-25 16:00:00 32.8 24 Este 40 Este 0 1005.1 -1.5 30
2019-08-25 15:00:00 32.2 15 Nordeste 31 Nordeste 0 1005.5 -2 31
2019-08-25 14:00:00 32 14 Nordeste 26 Nordeste 0 1006.1 -1.8 37
2019-08-25 13:00:00 30.7 8 Nordeste 19 Norte 0 1006.6 -1.4 43
2019-08-25 12:00:00 29.3 3 Nordeste 13 Norte 0 1007.5 -0.5 47
2019-08-25 11:00:00 27.3 4 Norte 10 Sudeste 0 1007.9 0.1 57
2019-08-25 10:00:00 24.9 4 Este 10 Oeste 0 1008 0.4 65
2019-08-25 09:00:00 21.6 7 Sudoeste 14 Sudoeste 0 1008 0.5 73
2019-08-25 08:00:00 19.6 8 Oeste 15 Sudoeste 0 1007.8 0.1 79
2019-08-25 07:00:00 19.8 10 Sudoeste 17 Sudoeste 0 1007.6 -0.2 77
2019-08-25 06:00:00 20.9 4 Oeste 14 Oeste 0 1007.5 -0.2 75
2019-08-25 05:00:00 20.9 8 Oeste 15 Oeste 0 1007.7 -0.1 75
2019-08-25 04:00:00 20.8 6 Oeste 13 Oeste 0 1007.8 -0.1 78
2019-08-25 03:00:00 20.8 6 Sudoeste 50 Oeste 0 1007.7 -0.2 78
2019-08-25 02:00:00 21.5 7 Oeste 10 Oeste 0 1007.8 0.1 79
2019-08-25 01:00:00 22.9 5 Sudoeste 17 Oeste 0 1007.9 0.7 76
2019-08-25 00:00:00 23.5 5 Sudoeste 11 Sudoeste 0 1007.9 1.3 80
2019-08-24 23:00:00 23.8 7 Oeste 11 Oeste 0 1007.7 1.6 72
2019-08-24 22:00:00 25.2 0 Calma 8 Norte 0 1007.2 1 58
2019-08-24 21:00:00 26.7 7 Nordeste 20 Nordeste 0 1006.6 0.4 56
2019-08-24 20:00:00 29.3 13 Nordeste 20 Nordeste 0 1006.1 -0.3 39
2019-08-24 19:00:00 31.1 14 Este 27 Este 0 1006.2 -0.7 35
2019-08-24 18:00:00 32.3 14 Nordeste 26 Este 0 1006.2 -1.2 34
2019-08-24 17:00:00 32.9 9 Nordeste 32 Nordeste 0 1006.4 -1.4 32
2019-08-24 16:00:00 33.2 11 Nordeste 23 Nordeste 0 1006.9 -1.5 33
2019-08-24 15:00:00 32.2 9 Nordeste 24 Nordeste 0 1007.4 -1.5 34
2019-08-24 14:00:00 31.6 9 Nordeste 22 Nordeste 0 1007.8 -1.3 36
2019-08-24 13:00:00 30.4 8 Norte 16 Oeste 0 1008.4 -0.6 36
2019-08-24 12:00:00 28.8 4 Sudeste 14 Norte 0 1008.9 -0.2 40
2019-08-24 11:00:00 27.5 2 Nordeste 10 Sudoeste 0 1009.1 0.2 39
2019-08-24 10:00:00 23.8 7 Sudoeste 17 Oeste 0 1009 0.4 45
2019-08-24 09:00:00 20.4 10 Sudoeste 18 Sudoeste 0 1009.1 0.6 56
2019-08-24 08:00:00 18.3 10 Sudoeste 21 Sudoeste 0 1008.9 0.4 63
2019-08-24 07:00:00 18.2 9 Sudoeste 16 Sudoeste 0 1008.6 -0.1 63
2019-08-24 06:00:00 18.9 9 Sudoeste 19 Sudoeste 0 1008.5 -0.3 61
2019-08-24 05:00:00 19.1 10 Sudoeste 18 Sudoeste 0 1008.5 -0.4 59
2019-08-24 04:00:00 19.5 10 Oeste 17 Sudoeste 0 1008.7 -0.1 59
2019-08-24 03:00:00 20.1 9 Sudoeste 15 Sudoeste 0 1008.8 0.1 57
2019-08-24 02:00:00 20.4 8 Sudoeste 58 Oeste 0 1008.9 0.4 59
2019-08-24 01:00:00 21.4 7 Oeste 10 Oeste 0 1008.8 0.6 59
2019-08-24 00:00:00 22.9 3 Sudoeste 10 Sudoeste 0 1008.7 1.4 61
2019-08-23 23:00:00 23.5 5 Sudoeste 8 Sudoeste 0 1008.5 1.5 49
2019-08-23 22:00:00 25 0 Calma 55 Este 0 1008.2 1.2 41
2019-08-23 21:00:00 27.6 6 Sudeste 19 Sudeste 0 1007.3 0.3 33
2019-08-23 20:00:00 30.4 10 Este 21 Nordeste 0 1007 -0.2 29
2019-08-23 19:00:00 31.7 15 Este 26 Este 0 1007 -0.4 25
2019-08-23 18:00:00 32.6 16 Nordeste 28 Nordeste 0 1007 -0.9 23
2019-08-23 17:00:00 33 18 Nordeste 35 Este 0 1007.2 -1.4 23
2019-08-23 16:00:00 33.3 17 Nordeste 32 Nordeste 0 1007.4 -2.1 23
2019-08-23 15:00:00 32.5 11 Este 27 Nordeste 0 1007.9 -2.1 30
2019-08-23 14:00:00 31.8 11 Nordeste 22 Noroeste 0 1008.6 -1.7 33
2019-08-23 13:00:00 30.8 6 Norte 14 Nordeste 0 1009.5 -1 36
2019-08-23 12:00:00 28.9 5 Nordeste 14 Nordeste 0 1010 -0.5 40
2019-08-23 11:00:00 26.6 4 Oeste 12 Oeste 0 1010.3 0.1 54
2019-08-23 10:00:00 24.1 4 Oeste 16 Sudoeste 0 1010.5 0.6 69
2019-08-23 09:00:00 21 10 Sudoeste 18 Sudoeste 0 1010.5 0.8 74
2019-08-23 08:00:00 19.6 11 Sudoeste 16 Sudoeste 0 1010.2 0.4 77
2019-08-23 07:00:00 19 7 Oeste 17 Oeste 0 1009.9 0.1 80
2019-08-23 06:00:00 19.6 9 Sudoeste 15 Sudoeste 0 1009.7 -0.5 78
2019-08-23 05:00:00 20 8 Oeste 18 Sudoeste 0 1009.8 -0.4 77
2019-08-23 04:00:00 20.3 10 Sudoeste 17 Oeste 0 1009.8 -0.3 77
2019-08-23 03:00:00 20.8 10 Sudoeste 17 Sudoeste 0 1010.2 0.1 78
2019-08-23 02:00:00 21.1 6 Oeste 10 Oeste 0 1010.2 0.6 81
2019-08-23 01:00:00 22.1 7 Oeste 13 Oeste 0 1010.1 1.1 80
2019-08-23 00:00:00 23 9 Sudoeste 17 Oeste 0 1010.1 1.6 81
2019-08-22 23:00:00 23.4 6 Sudoeste 53 Este 0 1009.6 1.7 74
2019-08-22 22:00:00 24.5 4 Oeste 52 Este 0 1009 1.2 55
2019-08-22 21:00:00 27.1 5 Este 15 Sudeste 0 1008.5 0.7 42
2019-08-22 20:00:00 29.5 8 Nordeste 22 Nordeste 0 1007.9 0 32
2019-08-22 19:00:00 31 16 Nordeste 27 Nordeste 0 1007.8 -0.5 24
2019-08-22 18:00:00 31.8 19 Nordeste 31 Nordeste 0 1007.8 -0.9 26
2019-08-22 17:00:00 32.7 12 Nordeste 28 Norte 0 1007.9 -1.3 29
2019-08-22 16:00:00 32.2 13 Este 27 Este 0 1008.3 -1.5 31
2019-08-22 15:00:00 31.7 10 Nordeste 24 Este 0 1008.7 -1.7 33
2019-08-22 14:00:00 30.7 8 Nordeste 22 Nordeste 0 1009.2 -1.1 36
2019-08-22 13:00:00 29.7 9 Norte 18 Este 0 1009.8 -0.4 38
2019-08-22 12:00:00 28.4 5 Nordeste -- -- 0 1010.4 0.2 43
2019-08-22 11:00:00 26.7 6 Este 12 Este 0 1010.3 0.4 49
2019-08-22 10:00:00 23.7 4 Sudoeste 12 Oeste 0 1010.2 0.6 59
2019-08-22 09:00:00 20.6 7 Oeste 15 Oeste 0 1010.2 1.1 76
2019-08-22 08:00:00 18.1 8 Oeste 13 Sudoeste 0 1009.9 0.9 87
2019-08-22 07:00:00 17.7 6 Oeste 10 Sudoeste 0 1009.6 0.9 86
2019-08-22 06:00:00 18.6 3 Oeste -- -- 0 1009.1 0.2 83
2019-08-22 05:00:00 18.8 6 Oeste 15 Oeste 0 1009 0 85
2019-08-22 04:00:00 19.3 7 Oeste 13 Sudoeste 0 1008.7 0 86
2019-08-22 03:00:00 19.6 8 Noroeste 13 Oeste 0 1008.9 0 86
2019-08-22 02:00:00 20.9 3 Sur 9 Sudoeste 0 1009 -0.6 81
2019-08-22 01:00:00 21 5 Oeste 18 Sudoeste 0 1008.7 -1.1 82
2019-08-22 00:00:00 21.7 9 Oeste 16 Sudoeste 0 1008.9 -0.2 79
2019-08-21 23:00:00 22.3 0 Calma 50 Este 0 1009.6 1.1 76
2019-08-21 22:00:00 22.7 15 Norte 27 Norte 0 1009.8 1.7 77
2019-08-21 21:00:00 24.8 14 Norte 30 Este 0 1009.1 1.3 59
2019-08-21 20:00:00 25.7 14 Norte 29 Norte 0 1008.5 0.6 56
2019-08-21 19:00:00 27.6 21 Norte 31 Noroeste 0 1008.1 -0.1 47
2019-08-21 18:00:00 29 17 Norte 33 Noroeste 0 1007.8 -1.2 43
2019-08-21 17:00:00 29.9 18 Norte 32 Noroeste 0 1007.9 -1.5 41
2019-08-21 16:00:00 28.7 11 Nordeste 22 Norte 0 1008.2 -1.6 41
2019-08-21 15:00:00 27.8 12 Nordeste 24 Norte 0 1009 -1 46
2019-08-21 14:00:00 27.8 8 Este 24 Norte 0 1009.4 -0.6 44
2019-08-21 13:00:00 27 14 Nordeste 27 Nordeste 0 1009.8 -0.3 50
2019-08-21 12:00:00 26 15 Este 22 Este 0 1010 0.1 54
2019-08-21 11:00:00 23.5 2 Oeste 13 Este 0 1010 0.2 82
2019-08-21 10:00:00 22.4 9 Nordeste 18 Este 0.2 1010.1 0.5 85
2019-08-21 09:00:00 23.3 8 Nordeste -- -- -- 1009.9 0.4 78
2019-08-21 08:00:00 22.5 5 Norte 12 Norte 0 1009.8 0.1 85
2019-08-21 07:00:00 22.3 0 Calma 9 Sudoeste 0 1009.6 -0.1 88
2019-08-21 06:00:00 22.3 5 Sudoeste 8 Sudoeste 0 1009.5 -0.3 88
2019-08-21 05:00:00 22.2 4 Sudoeste 10 Norte 0 1009.7 0 88
2019-08-21 04:00:00 22.7 8 Norte 17 Nordeste 0.2 1009.7 -0.1 87
2019-08-21 03:00:00 23.1 8 Norte 23 Norte 0 1009.8 -0.2 85
2019-08-21 02:00:00 23.1 10 Norte 18 Norte 0 1009.7 0 85
2019-08-21 01:00:00 22.6 3 Noroeste 13 Oeste 0 1009.8 0.3 91
2019-08-21 00:00:00 22.2 8 Sudoeste 13 Sudoeste 0 1010 0.8 90